sensor_id;sensor_type;location;lat;lon;timestamp;pressure;altitude;pressure_sealevel;temperature;humidity
64844;BME280;51310;52.198;5.422;2023-02-01T00:00:00;101671.03;;;3.99;100.00
64844;BME280;51310;52.198;5.422;2023-02-01T00:02:26;101667.19;;;4.08;100.00
64844;BME280;51310;52.198;5.422;2023-02-01T00:04:52;101667.31;;;4.15;100.00
64844;BME280;51310;52.198;5.422;2023-02-01T00:07:17;101670.72;;;4.21;100.00
64844;BME280;51310;52.198;5.422;2023-02-01T00:09:43;101656.34;;;4.22;100.00
64844;BME280;51310;52.198;5.422;2023-02-01T00:12:09;101660.09;;;4.31;100.00
64844;BME280;51310;52.198;5.422;2023-02-01T00:14:35;101673.06;;;4.32;100.00
64844;BME280;51310;52.198;5.422;2023-02-01T00:17:07;101667.56;;;4.42;100.00
64844;BME280;51310;52.198;5.422;2023-02-01T00:19:33;101655.84;;;4.50;100.00
64844;BME280;51310;52.198;5.422;2023-02-01T00:21:59;101663.88;;;4.53;100.00
64844;BME280;51310;52.198;5.422;2023-02-01T00:24:25;101662.38;;;4.48;100.00
64844;BME280;51310;52.198;5.422;2023-02-01T00:26:51;101657.06;;;4.59;100.00
64844;BME280;51310;52.198;5.422;2023-02-01T00:29:19;101657.28;;;4.61;100.00
64844;BME280;51310;52.198;5.422;2023-02-01T00:31:45;101656.84;;;4.58;100.00
64844;BME280;51310;52.198;5.422;2023-02-01T00:34:16;101664.00;;;4.60;100.00
64844;BME280;51310;52.198;5.422;2023-02-01T00:36:43;101659.22;;;4.69;100.00
64844;BME280;51310;52.198;5.422;2023-02-01T00:39:09;101659.91;;;4.68;100.00
64844;BME280;51310;52.198;5.422;2023-02-01T00:41:35;101660.34;;;4.71;100.00
64844;BME280;51310;52.198;5.422;2023-02-01T00:44:01;101657.97;;;4.72;100.00
64844;BME280;51310;52.198;5.422;2023-02-01T00:46:28;101663.81;;;4.71;100.00
64844;BME280;51310;52.198;5.422;2023-02-01T00:48:54;101661.94;;;4.70;100.00
64844;BME280;51310;52.198;5.422;2023-02-01T00:51:26;101661.75;;;4.69;100.00
64844;BME280;51310;52.198;5.422;2023-02-01T00:53:53;101660.53;;;4.72;100.00
64844;BME280;51310;52.198;5.422;2023-02-01T00:56:20;101657.78;;;4.71;100.00
64844;BME280;51310;52.198;5.422;2023-02-01T00:58:45;101658.91;;;4.73;100.00
64844;BME280;51310;52.198;5.422;2023-02-01T01:01:25;101671.22;;;4.57;100.00
64844;BME280;51310;52.198;5.422;2023-02-01T01:03:58;101664.00;;;4.73;100.00
64844;BME280;51310;52.198;5.422;2023-02-01T01:06:33;101661.56;;;4.80;100.00
64844;BME280;51310;52.198;5.422;2023-02-01T01:09:02;101652.47;;;4.82;100.00
64844;BME280;51310;52.198;5.422;2023-02-01T01:11:33;101641.75;;;4.85;100.00
64844;BME280;51310;52.198;5.422;2023-02-01T01:14:00;101636.06;;;4.80;100.00
64844;BME280;51310;52.198;5.422;2023-02-01T01:16:28;101641.00;;;4.86;100.00
64844;BME280;51310;52.198;5.422;2023-02-01T01:18:55;101641.13;;;4.93;100.00
64844;BME280;51310;52.198;5.422;2023-02-01T01:21:24;101638.69;;;4.87;100.00
64844;BME280;51310;52.198;5.422;2023-02-01T01:23:49;101639.41;;;4.86;100.00
64844;BME280;51310;52.198;5.422;2023-02-01T01:26:22;101635.13;;;4.92;100.00
64844;BME280;51310;52.198;5.422;2023-02-01T01:28:49;101628.75;;;4.96;100.00
64844;BME280;51310;52.198;5.422;2023-02-01T01:31:17;101635.72;;;4.97;100.00
64844;BME280;51310;52.198;5.422;2023-02-01T01:33:43;101632.19;;;5.09;100.00
64844;BME280;51310;52.198;5.422;2023-02-01T01:36:11;101632.63;;;5.12;100.00
64844;BME280;51310;52.198;5.422;2023-02-01T01:38:41;101637.72;;;5.12;100.00
64844;BME280;51310;52.198;5.422;2023-02-01T01:41:09;101630.38;;;5.08;100.00
64844;BME280;51310;52.198;5.422;2023-02-01T01:43:54;101640.50;;;5.14;100.00
64844;BME280;51310;52.198;5.422;2023-02-01T01:49:09;101631.69;;;5.25;100.00
64844;BME280;51310;52.198;5.422;2023-02-01T01:51:47;101636.06;;;5.26;100.00
64844;BME280;51310;52.198;5.422;2023-02-01T01:54:26;101640.53;;;5.34;100.00
64844;BME280;51310;52.198;5.422;2023-02-01T01:56:58;101631.75;;;5.32;100.00
64844;BME280;51310;52.198;5.422;2023-02-01T01:59:27;101623.25;;;5.39;100.00
64844;BME280;51310;52.198;5.422;2023-02-01T02:01:55;101619.78;;;5.38;100.00
64844;BME280;51310;52.198;5.422;2023-02-01T02:04:21;101603.94;;;5.41;100.00
64844;BME280;51310;52.198;5.422;2023-02-01T02:06:59;101598.25;;;5.36;100.00
64844;BME280;51310;52.198;5.422;2023-02-01T02:09:26;101603.63;;;5.45;100.00
64844;BME280;51310;52.198;5.422;2023-02-01T02:11:51;101606.69;;;5.42;100.00
64844;BME280;51310;52.198;5.422;2023-02-01T02:14:21;101607.03;;;5.38;100.00
64844;BME280;51310;52.198;5.422;2023-02-01T02:23:29;101590.72;;;5.50;100.00
64844;BME280;51310;52.198;5.422;2023-02-01T02:34:40;101580.75;;;5.59;100.00
64844;BME280;51310;52.198;5.422;2023-02-01T02:37:24;101575.84;;;5.61;100.00
64844;BME280;51310;52.198;5.422;2023-02-01T02:40:22;101565.09;;;5.63;100.00
64844;BME280;51310;52.198;5.422;2023-02-01T02:43:31;101577.72;;;5.62;100.00
64844;BME280;51310;52.198;5.422;2023-02-01T02:46:25;101571.31;;;5.65;100.00
64844;BME280;51310;52.198;5.422;2023-02-01T02:52:46;101562.38;;;5.62;100.00
64844;BME280;51310;52.198;5.422;2023-02-01T02:55:37;101542.13;;;5.63;100.00
64844;BME280;51310;52.198;5.422;2023-02-01T02:58:07;101531.50;;;5.53;100.00
64844;BME280;51310;52.198;5.422;2023-02-01T03:00:54;101531.06;;;5.50;100.00
64844;BME280;51310;52.198;5.422;2023-02-01T03:03:39;101542.41;;;5.52;100.00
64844;BME280;51310;52.198;5.422;2023-02-01T03:06:25;101534.53;;;5.50;100.00
64844;BME280;51310;52.198;5.422;2023-02-01T03:08:51;101535.59;;;5.45;100.00
64844;BME280;51310;52.198;5.422;2023-02-01T03:11:20;101545.59;;;5.44;100.00
64844;BME280;51310;52.198;5.422;2023-02-01T03:13:54;101550.44;;;5.35;100.00
64844;BME280;51310;52.198;5.422;2023-02-01T03:16:47;101540.50;;;5.44;100.00
64844;BME280;51310;52.198;5.422;2023-02-01T03:19:29;101533.16;;;5.40;100.00
64844;BME280;51310;52.198;5.422;2023-02-01T03:27:42;101542.84;;;5.22;100.00
64844;BME280;51310;52.198;5.422;2023-02-01T03:30:27;101537.44;;;5.26;100.00
64844;BME280;51310;52.198;5.422;2023-02-01T03:32:58;101543.44;;;5.27;100.00
64844;BME280;51310;52.198;5.422;2023-02-01T03:38:52;101546.66;;;5.19;100.00
64844;BME280;51310;52.198;5.422;2023-02-01T03:41:48;101547.91;;;5.15;100.00
64844;BME280;51310;52.198;5.422;2023-02-01T03:47:12;101543.53;;;5.14;100.00
64844;BME280;51310;52.198;5.422;2023-02-01T03:50:05;101551.34;;;5.16;100.00
64844;BME280;51310;52.198;5.422;2023-02-01T03:52:51;101551.34;;;5.16;100.00
64844;BME280;51310;52.198;5.422;2023-02-01T03:55:21;101559.31;;;5.11;100.00
64844;BME280;51310;52.198;5.422;2023-02-01T04:00:26;101544.75;;;5.10;100.00
64844;BME280;51310;52.198;5.422;2023-02-01T04:02:53;101548.41;;;5.12;100.00
64844;BME280;51310;52.198;5.422;2023-02-01T04:05:21;101548.69;;;5.21;100.00
64844;BME280;51310;52.198;5.422;2023-02-01T04:07:46;101550.78;;;5.31;100.00
64844;BME280;51310;52.198;5.422;2023-02-01T04:10:13;101546.09;;;5.34;100.00
64844;BME280;51310;52.198;5.422;2023-02-01T04:12:39;101549.09;;;5.44;100.00
64844;BME280;51310;52.198;5.422;2023-02-01T04:15:06;101545.28;;;5.48;100.00
64844;BME280;51310;52.198;5.422;2023-02-01T04:17:31;101544.56;;;5.49;100.00
64844;BME280;51310;52.198;5.422;2023-02-01T04:19:57;101553.84;;;5.48;100.00
64844;BME280;51310;52.198;5.422;2023-02-01T04:22:23;101569.44;;;5.57;100.00
64844;BME280;51310;52.198;5.422;2023-02-01T04:24:49;101565.91;;;5.49;100.00
64844;BME280;51310;52.198;5.422;2023-02-01T04:27:14;101562.25;;;5.47;100.00
64844;BME280;51310;52.198;5.422;2023-02-01T04:29:40;101552.16;;;5.42;100.00
64844;BME280;51310;52.198;5.422;2023-02-01T04:32:06;101562.78;;;5.45;100.00
64844;BME280;51310;52.198;5.422;2023-02-01T04:34:32;101560.34;;;5.39;100.00
64844;BME280;51310;52.198;5.422;2023-02-01T04:36:58;101565.13;;;5.43;100.00
64844;BME280;51310;52.198;5.422;2023-02-01T04:39:24;101559.22;;;5.37;100.00
64844;BME280;51310;52.198;5.422;2023-02-01T04:41:49;101557.56;;;5.38;100.00
64844;BME280;51310;52.198;5.422;2023-02-01T04:44:19;101547.19;;;5.36;100.00
64844;BME280;51310;52.198;5.422;2023-02-01T04:46:46;101546.56;;;5.44;100.00
64844;BME280;51310;52.198;5.422;2023-02-01T04:49:13;101535.28;;;5.29;100.00
64844;BME280;51310;52.198;5.422;2023-02-01T04:51:40;101539.88;;;5.32;100.00
64844;BME280;51310;52.198;5.422;2023-02-01T04:54:07;101544.44;;;5.34;100.00
64844;BME280;51310;52.198;5.422;2023-02-01T04:56:34;101548.69;;;5.41;100.00
64844;BME280;51310;52.198;5.422;2023-02-01T04:59:02;101554.53;;;5.40;100.00
64844;BME280;51310;52.198;5.422;2023-02-01T05:01:28;101545.56;;;5.37;100.00
64844;BME280;51310;52.198;5.422;2023-02-01T05:03:54;101548.31;;;5.38;100.00
64844;BME280;51310;52.198;5.422;2023-02-01T05:06:21;101543.91;;;5.37;100.00
64844;BME280;51310;52.198;5.422;2023-02-01T05:08:46;101544.81;;;5.38;100.00
64844;BME280;51310;52.198;5.422;2023-02-01T05:11:12;101563.94;;;5.34;100.00
64844;BME280;51310;52.198;5.422;2023-02-01T05:13:56;101542.22;;;5.30;100.00
64844;BME280;51310;52.198;5.422;2023-02-01T05:16:22;101535.47;;;5.31;100.00
64844;BME280;51310;52.198;5.422;2023-02-01T05:18:48;101534.75;;;5.32;100.00
64844;BME280;51310;52.198;5.422;2023-02-01T05:21:13;101536.91;;;5.29;100.00
64844;BME280;51310;52.198;5.422;2023-02-01T05:23:39;101531.41;;;5.26;100.00
64844;BME280;51310;52.198;5.422;2023-02-01T05:26:34;101536.50;;;5.26;100.00
64844;BME280;51310;52.198;5.422;2023-02-01T05:29:00;101537.91;;;5.17;100.00
64844;BME280;51310;52.198;5.422;2023-02-01T05:31:26;101551.25;;;5.21;100.00
64844;BME280;51310;52.198;5.422;2023-02-01T05:33:52;101553.72;;;5.14;100.00
64844;BME280;51310;52.198;5.422;2023-02-01T05:36:18;101556.94;;;5.26;100.00
64844;BME280;51310;52.198;5.422;2023-02-01T05:38:43;101562.03;;;5.26;100.00
64844;BME280;51310;52.198;5.422;2023-02-01T05:41:09;101561.50;;;5.28;100.00
64844;BME280;51310;52.198;5.422;2023-02-01T05:43:35;101555.13;;;5.25;100.00
64844;BME280;51310;52.198;5.422;2023-02-01T05:46:01;101556.81;;;5.31;100.00
64844;BME280;51310;52.198;5.422;2023-02-01T05:48:27;101567.72;;;5.30;100.00
64844;BME280;51310;52.198;5.422;2023-02-01T05:50:54;101567.19;;;5.33;100.00
64844;BME280;51310;52.198;5.422;2023-02-01T05:53:19;101553.66;;;5.27;100.00
64844;BME280;51310;52.198;5.422;2023-02-01T05:55:45;101554.13;;;5.37;100.00
64844;BME280;51310;52.198;5.422;2023-02-01T05:58:11;101563.78;;;5.40;100.00
64844;BME280;51310;52.198;5.422;2023-02-01T06:00:38;101548.09;;;5.37;100.00
64844;BME280;51310;52.198;5.422;2023-02-01T06:03:03;101560.00;;;5.43;100.00
64844;BME280;51310;52.198;5.422;2023-02-01T06:05:29;101563.69;;;5.45;100.00
64844;BME280;51310;52.198;5.422;2023-02-01T06:07:55;101562.38;;;5.42;100.00
64844;BME280;51310;52.198;5.422;2023-02-01T06:10:21;101569.63;;;5.39;100.00
64844;BME280;51310;52.198;5.422;2023-02-01T06:12:46;101558.00;;;5.41;100.00
64844;BME280;51310;52.198;5.422;2023-02-01T06:15:13;101554.53;;;5.40;100.00
64844;BME280;51310;52.198;5.422;2023-02-01T06:17:42;101550.66;;;5.37;100.00
64844;BME280;51310;52.198;5.422;2023-02-01T06:20:13;101550.53;;;5.42;100.00
64844;BME280;51310;52.198;5.422;2023-02-01T06:22:39;101548.00;;;5.42;100.00
64844;BME280;51310;52.198;5.422;2023-02-01T06:25:08;101560.88;;;5.37;100.00
64844;BME280;51310;52.198;5.422;2023-02-01T06:27:35;101549.91;;;5.38;100.00
64844;BME280;51310;52.198;5.422;2023-02-01T06:30:03;101566.66;;;5.35;100.00
64844;BME280;51310;52.198;5.422;2023-02-01T06:32:29;101577.63;;;5.34;100.00
64844;BME280;51310;52.198;5.422;2023-02-01T06:34:54;101569.69;;;5.26;100.00
64844;BME280;51310;52.198;5.422;2023-02-01T06:37:22;101559.59;;;5.20;100.00
64844;BME280;51310;52.198;5.422;2023-02-01T06:39:50;101573.63;;;5.17;100.00
64844;BME280;51310;52.198;5.422;2023-02-01T06:42:17;101566.28;;;5.12;100.00
64844;BME280;51310;52.198;5.422;2023-02-01T06:44:42;101581.00;;;5.08;100.00
64844;BME280;51310;52.198;5.422;2023-02-01T06:47:08;101580.00;;;5.00;100.00
64844;BME280;51310;52.198;5.422;2023-02-01T06:49:34;101576.84;;;4.96;100.00
64844;BME280;51310;52.198;5.422;2023-02-01T06:52:00;101571.94;;;4.97;100.00
64844;BME280;51310;52.198;5.422;2023-02-01T06:54:29;101568.34;;;5.02;100.00
64844;BME280;51310;52.198;5.422;2023-02-01T06:56:57;101561.53;;;4.96;100.00
64844;BME280;51310;52.198;5.422;2023-02-01T06:59:23;101565.72;;;4.95;100.00
64844;BME280;51310;52.198;5.422;2023-02-01T07:01:49;101567.69;;;4.90;100.00
64844;BME280;51310;52.198;5.422;2023-02-01T07:04:14;101554.94;;;4.90;100.00
64844;BME280;51310;52.198;5.422;2023-02-01T07:06:40;101578.28;;;4.93;100.00
64844;BME280;51310;52.198;5.422;2023-02-01T07:09:07;101563.81;;;4.87;100.00
64844;BME280;51310;52.198;5.422;2023-02-01T07:11:33;101566.44;;;4.94;100.00
64844;BME280;51310;52.198;5.422;2023-02-01T07:13:59;101572.66;;;4.96;100.00
64844;BME280;51310;52.198;5.422;2023-02-01T07:16:25;101570.09;;;4.96;100.00
64844;BME280;51310;52.198;5.422;2023-02-01T07:18:52;101568.34;;;5.02;100.00
64844;BME280;51310;52.198;5.422;2023-02-01T07:21:19;101574.94;;;5.07;100.00
64844;BME280;51310;52.198;5.422;2023-02-01T07:23:46;101564.63;;;5.13;100.00
64844;BME280;51310;52.198;5.422;2023-02-01T07:26:13;101566.81;;;5.10;100.00
64844;BME280;51310;52.198;5.422;2023-02-01T07:28:40;101580.06;;;5.07;100.00
64844;BME280;51310;52.198;5.422;2023-02-01T07:31:10;101570.09;;;4.96;100.00
64844;BME280;51310;52.198;5.422;2023-02-01T07:33:36;101574.59;;;4.91;100.00
64844;BME280;51310;52.198;5.422;2023-02-01T07:36:06;101579.91;;;4.93;100.00
64844;BME280;51310;52.198;5.422;2023-02-01T07:38:33;101569.56;;;4.99;100.00
64844;BME280;51310;52.198;5.422;2023-02-01T07:41:04;101566.00;;;5.04;100.00
64844;BME280;51310;52.198;5.422;2023-02-01T07:43:31;101568.03;;;5.06;100.00
64844;BME280;51310;52.198;5.422;2023-02-01T07:45:58;101572.75;;;5.03;100.00
64844;BME280;51310;52.198;5.422;2023-02-01T07:48:25;101572.94;;;5.05;100.00
64844;BME280;51310;52.198;5.422;2023-02-01T07:51:04;101577.72;;;5.09;100.00
64844;BME280;51310;52.198;5.422;2023-02-01T07:53:31;101576.06;;;5.09;100.00
64844;BME280;51310;52.198;5.422;2023-02-01T07:55:58;101577.50;;;5.07;100.00
64844;BME280;51310;52.198;5.422;2023-02-01T07:58:25;101592.13;;;5.08;100.00
64844;BME280;51310;52.198;5.422;2023-02-01T08:00:51;101588.66;;;5.08;100.00
64844;BME280;51310;52.198;5.422;2023-02-01T08:03:36;101591.53;;;5.04;100.00
64844;BME280;51310;52.198;5.422;2023-02-01T08:06:03;101595.38;;;5.07;100.00
64844;BME280;51310;52.198;5.422;2023-02-01T08:08:28;101597.22;;;5.08;100.00
64844;BME280;51310;52.198;5.422;2023-02-01T08:11:04;101595.78;;;5.10;100.00
64844;BME280;51310;52.198;5.422;2023-02-01T08:13:30;101584.34;;;5.14;100.00
64844;BME280;51310;52.198;5.422;2023-02-01T08:16:02;101599.13;;;5.17;100.00
64844;BME280;51310;52.198;5.422;2023-02-01T08:18:28;101584.41;;;5.21;100.00
64844;BME280;51310;52.198;5.422;2023-02-01T08:20:54;101584.47;;;5.28;100.00
64844;BME280;51310;52.198;5.422;2023-02-01T08:23:21;101568.97;;;5.27;100.00
64844;BME280;51310;52.198;5.422;2023-02-01T08:25:48;101574.75;;;5.39;100.00
64844;BME280;51310;52.198;5.422;2023-02-01T08:28:14;101577.50;;;5.40;100.00
64844;BME280;51310;52.198;5.422;2023-02-01T08:30:40;101574.44;;;5.43;100.00
64844;BME280;51310;52.198;5.422;2023-02-01T08:33:10;101571.34;;;5.45;100.00
64844;BME280;51310;52.198;5.422;2023-02-01T08:35:37;101572.25;;;5.46;100.00
64844;BME280;51310;52.198;5.422;2023-02-01T08:38:04;101564.78;;;5.47;100.00
64844;BME280;51310;52.198;5.422;2023-02-01T08:40:31;101571.13;;;5.44;100.00
64844;BME280;51310;52.198;5.422;2023-02-01T08:42:57;101582.66;;;5.47;100.00
64844;BME280;51310;52.198;5.422;2023-02-01T08:45:25;101569.91;;;5.47;100.00
64844;BME280;51310;52.198;5.422;2023-02-01T08:47:53;101579.00;;;5.45;100.00
64844;BME280;51310;52.198;5.422;2023-02-01T08:50:20;101574.22;;;5.41;100.00
64844;BME280;51310;52.198;5.422;2023-02-01T08:52:46;101571.72;;;5.48;100.00
64844;BME280;51310;52.198;5.422;2023-02-01T08:55:13;101571.22;;;5.51;100.00
64844;BME280;51310;52.198;5.422;2023-02-01T08:57:40;101566.69;;;5.55;100.00
64844;BME280;51310;52.198;5.422;2023-02-01T09:00:11;101554.31;;;5.59;100.00
64844;BME280;51310;52.198;5.422;2023-02-01T09:02:37;101551.09;;;5.67;100.00
64844;BME280;51310;52.198;5.422;2023-02-01T09:05:04;101558.81;;;5.74;100.00
64844;BME280;51310;52.198;5.422;2023-02-01T09:07:31;101554.34;;;5.86;100.00
64844;BME280;51310;52.198;5.422;2023-02-01T09:09:57;101541.69;;;6.00;100.00
64844;BME280;51310;52.198;5.422;2023-02-01T09:12:27;101552.34;;;6.10;100.00
64844;BME280;51310;52.198;5.422;2023-02-01T09:14:55;101564.25;;;6.17;100.00
64844;BME280;51310;52.198;5.422;2023-02-01T09:17:21;101567.03;;;6.19;100.00
64844;BME280;51310;52.198;5.422;2023-02-01T09:19:47;101552.06;;;6.22;100.00
64844;BME280;51310;52.198;5.422;2023-02-01T09:22:12;101546.56;;;6.19;100.00
64844;BME280;51310;52.198;5.422;2023-02-01T09:24:39;101544.22;;;6.20;100.00
64844;BME280;51310;52.198;5.422;2023-02-01T09:27:05;101558.44;;;6.18;100.00
64844;BME280;51310;52.198;5.422;2023-02-01T09:29:31;101557.38;;;6.23;100.00
64844;BME280;51310;52.198;5.422;2023-02-01T09:31:56;101558.28;;;6.24;100.00
64844;BME280;51310;52.198;5.422;2023-02-01T09:34:22;101570.69;;;6.21;100.00
64844;BME280;51310;52.198;5.422;2023-02-01T09:36:48;101566.69;;;6.23;100.00
64844;BME280;51310;52.198;5.422;2023-02-01T09:39:14;101554.63;;;6.22;100.00
64844;BME280;51310;52.198;5.422;2023-02-01T09:42:16;101564.69;;;6.27;100.00
64844;BME280;51310;52.198;5.422;2023-02-01T09:47:30;101554.47;;;6.27;100.00
64844;BME280;51310;52.198;5.422;2023-02-01T09:50:14;101548.78;;;6.23;100.00
64844;BME280;51310;52.198;5.422;2023-02-01T09:53:05;101528.53;;;6.24;100.00
64844;BME280;51310;52.198;5.422;2023-02-01T09:55:41;101544.38;;;6.22;100.00
64844;BME280;51310;52.198;5.422;2023-02-01T09:58:37;101544.72;;;6.18;100.00
64844;BME280;51310;52.198;5.422;2023-02-01T10:01:12;101554.94;;;6.18;100.00
64844;BME280;51310;52.198;5.422;2023-02-01T10:03:39;101548.38;;;6.20;100.00
64844;BME280;51310;52.198;5.422;2023-02-01T10:17:37;101529.50;;;5.85;100.00
64844;BME280;51310;52.198;5.422;2023-02-01T10:25:58;101561.91;;;5.51;100.00
64844;BME280;51310;52.198;5.422;2023-02-01T10:28:34;101556.56;;;5.43;100.00
64844;BME280;51310;52.198;5.422;2023-02-01T10:31:02;101562.69;;;5.38;100.00
64844;BME280;51310;52.198;5.422;2023-02-01T10:33:39;101550.78;;;5.31;100.00
64844;BME280;51310;52.198;5.422;2023-02-01T10:36:29;101542.22;;;5.30;100.00
64844;BME280;51310;52.198;5.422;2023-02-01T10:38:58;101542.78;;;5.35;100.00
64844;BME280;51310;52.198;5.422;2023-02-01T10:41:33;101553.78;;;5.41;100.00
64844;BME280;51310;52.198;5.422;2023-02-01T10:44:03;101533.84;;;5.51;100.00
64844;BME280;51310;52.198;5.422;2023-02-01T10:46:33;101524.41;;;5.58;100.00
64844;BME280;51310;52.198;5.422;2023-02-01T10:49:03;101540.50;;;5.64;100.00
64844;BME280;51310;52.198;5.422;2023-02-01T10:51:52;101536.91;;;5.69;100.00
64844;BME280;51310;52.198;5.422;2023-02-01T10:54:31;101519.06;;;5.76;100.00
64844;BME280;51310;52.198;5.422;2023-02-01T10:56:57;101518.25;;;5.90;100.00
64844;BME280;51310;52.198;5.422;2023-02-01T10:59:29;101525.88;;;6.03;100.00
64844;BME280;51310;52.198;5.422;2023-02-01T11:02:19;101528.25;;;6.08;100.00
64844;BME280;51310;52.198;5.422;2023-02-01T11:04:46;101516.97;;;6.13;100.00
64844;BME280;51310;52.198;5.422;2023-02-01T11:07:27;101517.16;;;6.15;100.00
64844;BME280;51310;52.198;5.422;2023-02-01T11:09:55;101507.66;;;6.14;100.00
64844;BME280;51310;52.198;5.422;2023-02-01T11:12:37;101510.03;;;6.12;100.00
64844;BME280;51310;52.198;5.422;2023-02-01T11:15:22;101511.66;;;6.12;100.00
64844;BME280;51310;52.198;5.422;2023-02-01T11:17:51;101509.47;;;6.08;100.00
64844;BME280;51310;52.198;5.422;2023-02-01T11:22:59;101518.19;;;6.03;100.00
64844;BME280;51310;52.198;5.422;2023-02-01T11:25:25;101518.03;;;6.08;100.00
64844;BME280;51310;52.198;5.422;2023-02-01T11:27:54;101517.34;;;6.16;100.00
64844;BME280;51310;52.198;5.422;2023-02-01T11:30:38;101515.38;;;6.21;100.00
64844;BME280;51310;52.198;5.422;2023-02-01T11:33:12;101520.34;;;6.27;100.00
64844;BME280;51310;52.198;5.422;2023-02-01T11:35:40;101520.91;;;6.31;100.00
64844;BME280;51310;52.198;5.422;2023-02-01T11:38:36;101532.06;;;6.39;100.00
64844;BME280;51310;52.198;5.422;2023-02-01T11:41:26;101517.69;;;6.47;100.00
64844;BME280;51310;52.198;5.422;2023-02-01T11:44:05;101534.69;;;6.46;100.00
64844;BME280;51310;52.198;5.422;2023-02-01T11:46:41;101516.78;;;6.46;100.00
64844;BME280;51310;52.198;5.422;2023-02-01T11:49:25;101508.91;;;6.45;100.00
64844;BME280;51310;52.198;5.422;2023-02-01T11:52:18;101512.91;;;6.43;100.00
64844;BME280;51310;52.198;5.422;2023-02-01T11:54:56;101507.44;;;6.40;100.00
64844;BME280;51310;52.198;5.422;2023-02-01T12:00:49;101495.03;;;6.50;100.00
64844;BME280;51310;52.198;5.422;2023-02-01T12:15:18;101499.91;;;6.83;100.00
64844;BME280;51310;52.198;5.422;2023-02-01T12:24:36;101500.81;;;6.83;100.00
64844;BME280;51310;52.198;5.422;2023-02-01T12:27:43;101482.72;;;6.82;100.00
64844;BME280;51310;52.198;5.422;2023-02-01T12:39:31;101482.91;;;6.76;100.00
64844;BME280;51310;52.198;5.422;2023-02-01T12:42:23;101495.16;;;6.78;100.00
64844;BME280;51310;52.198;5.422;2023-02-01T12:45:25;101490.75;;;6.77;100.00
64844;BME280;51310;52.198;5.422;2023-02-01T12:48:07;101497.16;;;6.81;100.00
64844;BME280;51310;52.198;5.422;2023-02-01T12:50:52;101488.38;;;6.79;100.00
64844;BME280;51310;52.198;5.422;2023-02-01T12:53:55;101473.03;;;6.72;100.00
64844;BME280;51310;52.198;5.422;2023-02-01T12:56:47;101504.44;;;6.71;100.00
64844;BME280;51310;52.198;5.422;2023-02-01T12:59:42;101507.00;;;6.71;100.00
64844;BME280;51310;52.198;5.422;2023-02-01T13:02:35;101505.34;;;6.71;100.00
64844;BME280;51310;52.198;5.422;2023-02-01T13:05:22;101494.19;;;6.71;100.00
64844;BME280;51310;52.198;5.422;2023-02-01T13:08:14;101500.97;;;6.70;100.00
64844;BME280;51310;52.198;5.422;2023-02-01T13:11:06;101506.28;;;6.72;100.00
64844;BME280;51310;52.198;5.422;2023-02-01T13:16:30;101492.03;;;6.74;100.00
64844;BME280;51310;52.198;5.422;2023-02-01T13:19:13;101495.31;;;6.73;100.00
64844;BME280;51310;52.198;5.422;2023-02-01T13:22:02;101502.63;;;6.77;100.00
64844;BME280;51310;52.198;5.422;2023-02-01T13:24:44;101498.41;;;6.77;100.00
64844;BME280;51310;52.198;5.422;2023-02-01T13:27:17;101503.53;;;6.77;100.00
64844;BME280;51310;52.198;5.422;2023-02-01T13:30:20;101493.50;;;6.79;100.00
64844;BME280;51310;52.198;5.422;2023-02-01T13:39:38;101507.41;;;6.81;100.00
64844;BME280;51310;52.198;5.422;2023-02-01T13:42:30;101505.19;;;6.84;100.00
64844;BME280;51310;52.198;5.422;2023-02-01T13:45:02;101503.19;;;6.82;100.00
64844;BME280;51310;52.198;5.422;2023-02-01T13:47:40;101497.16;;;6.88;100.00
64844;BME280;51310;52.198;5.422;2023-02-01T13:50:31;101501.22;;;6.93;100.00
64844;BME280;51310;52.198;5.422;2023-02-01T13:53:13;101501.56;;;6.96;100.00
64844;BME280;51310;52.198;5.422;2023-02-01T13:55:43;101502.13;;;7.01;100.00
64844;BME280;51310;52.198;5.422;2023-02-01T13:58:20;101482.03;;;7.04;100.00
64844;BME280;51310;52.198;5.422;2023-02-01T14:00:49;101489.72;;;7.11;100.00
64844;BME280;51310;52.198;5.422;2023-02-01T14:03:46;101494.84;;;7.11;100.00
64844;BME280;51310;52.198;5.422;2023-02-01T14:06:42;101486.81;;;7.15;100.00
64844;BME280;51310;52.198;5.422;2023-02-01T14:11:48;101496.31;;;7.16;100.00
64844;BME280;51310;52.198;5.422;2023-02-01T14:17:29;101516.63;;;7.15;100.00
64844;BME280;51310;52.198;5.422;2023-02-01T14:19:33;101510.91;;;7.10;100.00
64844;BME280;51310;52.198;5.422;2023-02-01T14:22:00;101502.13;;;7.08;100.00
64844;BME280;51310;52.198;5.422;2023-02-01T14:24:27;101510.38;;;7.06;100.00
64844;BME280;51310;52.198;5.422;2023-02-01T14:29:42;101499.06;;;7.11;100.00
64844;BME280;51310;52.198;5.422;2023-02-01T14:32:20;101483.16;;;7.06;100.00
64844;BME280;51310;52.198;5.422;2023-02-01T14:44:48;101496.84;;;7.07;100.00
64844;BME280;51310;52.198;5.422;2023-02-01T14:52:40;101509.75;;;6.72;100.00
64844;BME280;51310;52.198;5.422;2023-02-01T14:55:21;101531.72;;;6.43;100.00
64844;BME280;51310;52.198;5.422;2023-02-01T14:57:54;101536.16;;;5.90;100.00
64844;BME280;51310;52.198;5.422;2023-02-01T15:00:26;101524.31;;;5.50;100.00
64844;BME280;51310;52.198;5.422;2023-02-01T15:02:54;101520.41;;;5.20;100.00
64844;BME280;51310;52.198;5.422;2023-02-01T15:05:31;101527.41;;;5.08;100.00
64844;BME280;51310;52.198;5.422;2023-02-01T15:08:15;101540.34;;;5.09;100.00
64844;BME280;51310;52.198;5.422;2023-02-01T15:10:46;101536.56;;;5.13;100.00
64844;BME280;51310;52.198;5.422;2023-02-01T15:13:33;101508.91;;;5.36;100.00
64844;BME280;51310;52.198;5.422;2023-02-01T15:16:14;101542.53;;;5.46;100.00
64844;BME280;51310;52.198;5.422;2023-02-01T15:18:41;101535.97;;;5.48;100.00